Chadron Municipal Airport Chadron US
ICAO: KCDR
IATA: CDR
Category: Medium
Scheduled Services: No

Elevation: 3297 ft
TransAlt. 18000 ft.

Airport Communications:
ASOS:118.05
DENVER CNTR:127.95
COLUMBUS RDO:122.5
CTAF/UNICOM:122.8

KCDR Zoom In..

If you have problems with the map follow the link
https://www.worldairports.se/pages/airport.php?
ICAO=KCDR

Runways:

(A) RW 02 length 5998 ft width 100 ft
ILS 110.90 / hdg 24

(B) RW 11 length 4400 ft width 75 ft
---- / hdg 114

(C) RW 20 length 5998 ft width 100 ft
---- / hdg 204

(D) RW 29 length 4400 ft width 75 ft
---- / hdg 294

Location; KCDR
Day. 23 / Time. 17.53 Zulu
* Altimeter: 30.21
* Temperature: 15° c. 59°f.
* Wind from: 160° Speed 11 kn.
Dewpoint: 05° c.
Visibility: 10 Statute Miles.
Clouds: Clear (automated report).

KCDR 231753Z AUTO 16011KT 10SM CLR 15/05 A3021 RMK AO2 SLP242 T01500050 10150 20067 58012


Wind From 160°
Speed 11 kn.

 
 
jpsmedia.com for Web Design worldairports.se 2018   terms of use